sensor_id;sensor_type;location;lat;lon;timestamp;P1;durP1;ratioP1;P2;durP2;ratioP2
8171;SDS011;4127;47.908;10.850;2023-09-12T07:25:29;8.83;;;8.13;;
8171;SDS011;4127;47.908;10.850;2023-09-12T07:27:56;8.60;;;7.90;;
8171;SDS011;4127;47.908;10.850;2023-09-12T07:30:23;8.10;;;7.33;;
8171;SDS011;4127;47.908;10.850;2023-09-12T07:32:50;8.40;;;7.60;;
8171;SDS011;4127;47.908;10.850;2023-09-12T07:35:21;8.10;;;7.50;;
8171;SDS011;4127;47.908;10.850;2023-09-12T07:37:50;8.63;;;8.03;;
8171;SDS011;4127;47.908;10.850;2023-09-12T07:40:17;7.70;;;7.10;;
8171;SDS011;4127;47.908;10.850;2023-09-12T07:42:44;8.43;;;7.63;;
8171;SDS011;4127;47.908;10.850;2023-09-12T07:45:11;7.63;;;7.07;;
8171;SDS011;4127;47.908;10.850;2023-09-12T07:47:38;7.47;;;6.77;;
8171;SDS011;4127;47.908;10.850;2023-09-12T07:50:05;8.13;;;7.53;;
8171;SDS011;4127;47.908;10.850;2023-09-12T07:52:33;7.77;;;7.10;;
8171;SDS011;4127;47.908;10.850;2023-09-12T07:55:01;7.40;;;6.80;;
8171;SDS011;4127;47.908;10.850;2023-09-12T07:57:29;7.03;;;6.53;;
8171;SDS011;4127;47.908;10.850;2023-09-12T07:59:56;7.00;;;6.47;;
8171;SDS011;4127;47.908;10.850;2023-09-12T08:02:23;7.37;;;6.83;;
8171;SDS011;4127;47.908;10.850;2023-09-12T08:04:50;7.07;;;6.47;;
8171;SDS011;4127;47.908;10.850;2023-09-12T08:07:17;6.80;;;6.30;;
8171;SDS011;4127;47.908;10.850;2023-09-12T08:09:54;7.80;;;7.20;;
8171;SDS011;4127;47.908;10.850;2023-09-12T08:12:24;7.17;;;6.57;;
8171;SDS011;4127;47.908;10.850;2023-09-12T08:14:52;6.63;;;6.13;;
8171;SDS011;4127;47.908;10.850;2023-09-12T08:17:22;6.60;;;6.13;;
8171;SDS011;4127;47.908;10.850;2023-09-12T08:19:49;6.63;;;6.13;;
8171;SDS011;4127;47.908;10.850;2023-09-12T08:22:16;6.97;;;6.38;;
8171;SDS011;4127;47.908;10.850;2023-09-12T08:24:43;6.82;;;6.32;;
8171;SDS011;4127;47.908;10.850;2023-09-12T08:27:10;7.00;;;6.40;;
8171;SDS011;4127;47.908;10.850;2023-09-12T08:29:37;6.38;;;5.93;;
8171;SDS011;4127;47.908;10.850;2023-09-12T08:32:05;6.32;;;5.82;;
8171;SDS011;4127;47.908;10.850;2023-09-12T08:34:32;6.25;;;5.75;;
8171;SDS011;4127;47.908;10.850;2023-09-12T08:36:59;6.00;;;5.50;;
8171;SDS011;4127;47.908;10.850;2023-09-12T08:39:27;6.68;;;6.18;;
8171;SDS011;4127;47.908;10.850;2023-09-12T08:41:54;6.80;;;6.20;;
8171;SDS011;4127;47.908;10.850;2023-09-12T08:44:21;5.85;;;5.45;;
8171;SDS011;4127;47.908;10.850;2023-09-12T08:46:48;6.50;;;5.90;;
8171;SDS011;4127;47.908;10.850;2023-09-12T08:49:15;6.72;;;6.13;;
8171;SDS011;4127;47.908;10.850;2023-09-12T08:51:43;7.53;;;6.93;;
8171;SDS011;4127;47.908;10.850;2023-09-12T08:54:11;6.50;;;6.00;;
8171;SDS011;4127;47.908;10.850;2023-09-12T08:56:39;6.30;;;5.80;;
8171;SDS011;4127;47.908;10.850;2023-09-12T08:59:08;6.22;;;5.68;;
8171;SDS011;4127;47.908;10.850;2023-09-12T09:01:37;6.18;;;5.68;;
8171;SDS011;4127;47.908;10.850;2023-09-12T09:04:05;6.10;;;5.60;;
8171;SDS011;4127;47.908;10.850;2023-09-12T09:06:32;6.93;;;6.35;;
8171;SDS011;4127;47.908;10.850;2023-09-12T09:09:04;5.85;;;5.40;;
8171;SDS011;4127;47.908;10.850;2023-09-12T09:11:32;6.32;;;5.53;;
8171;SDS011;4127;47.908;10.850;2023-09-12T09:13:59;6.88;;;6.13;;
8171;SDS011;4127;47.908;10.850;2023-09-12T09:16:25;5.80;;;5.40;;
8171;SDS011;4127;47.908;10.850;2023-09-12T09:21:30;6.43;;;5.90;;
8171;SDS011;4127;47.908;10.850;2023-09-12T09:24:00;5.70;;;5.30;;
8171;SDS011;4127;47.908;10.850;2023-09-12T09:29:13;5.60;;;5.15;;
8171;SDS011;4127;47.908;10.850;2023-09-12T09:31:43;6.00;;;5.60;;
8171;SDS011;4127;47.908;10.850;2023-09-12T09:34:14;5.63;;;5.13;;
8171;SDS011;4127;47.908;10.850;2023-09-12T09:36:49;5.90;;;5.40;;
8171;SDS011;4127;47.908;10.850;2023-09-12T09:39:19;5.97;;;5.30;;
8171;SDS011;4127;47.908;10.850;2023-09-12T09:41:50;5.95;;;5.45;;
8171;SDS011;4127;47.908;10.850;2023-09-12T09:44:18;5.90;;;5.50;;
8171;SDS011;4127;47.908;10.850;2023-09-12T09:46:50;6.78;;;5.68;;
8171;SDS011;4127;47.908;10.850;2023-09-12T09:49:20;5.85;;;5.35;;
8171;SDS011;4127;47.908;10.850;2023-09-12T09:51:47;5.57;;;5.13;;
8171;SDS011;4127;47.908;10.850;2023-09-12T09:54:14;5.85;;;5.25;;
8171;SDS011;4127;47.908;10.850;2023-09-12T09:56:48;6.30;;;5.70;;
8171;SDS011;4127;47.908;10.850;2023-09-12T09:59:20;5.55;;;5.10;;
8171;SDS011;4127;47.908;10.850;2023-09-12T10:01:49;5.68;;;5.28;;
8171;SDS011;4127;47.908;10.850;2023-09-12T10:04:17;6.55;;;5.80;;
8171;SDS011;4127;47.908;10.850;2023-09-12T10:06:45;5.80;;;5.30;;
8171;SDS011;4127;47.908;10.850;2023-09-12T10:09:13;5.43;;;5.03;;
8171;SDS011;4127;47.908;10.850;2023-09-12T10:11:43;6.18;;;5.68;;
8171;SDS011;4127;47.908;10.850;2023-09-12T10:14:12;6.38;;;5.88;;
8171;SDS011;4127;47.908;10.850;2023-09-12T10:16:49;5.72;;;5.22;;
8171;SDS011;4127;47.908;10.850;2023-09-12T10:19:18;5.82;;;5.32;;
8171;SDS011;4127;47.908;10.850;2023-09-12T10:22:09;5.82;;;5.43;;
8171;SDS011;4127;47.908;10.850;2023-09-12T10:24:57;6.45;;;5.95;;
8171;SDS011;4127;47.908;10.850;2023-09-12T10:27:27;5.68;;;5.28;;
8171;SDS011;4127;47.908;10.850;2023-09-12T10:29:55;5.60;;;5.20;;
8171;SDS011;4127;47.908;10.850;2023-09-12T10:32:26;5.22;;;4.82;;
8171;SDS011;4127;47.908;10.850;2023-09-12T10:34:57;5.22;;;4.75;;
8171;SDS011;4127;47.908;10.850;2023-09-12T10:37:25;5.57;;;5.18;;
8171;SDS011;4127;47.908;10.850;2023-09-12T10:39:54;5.40;;;5.00;;
8171;SDS011;4127;47.908;10.850;2023-09-12T10:42:23;7.07;;;4.90;;
8171;SDS011;4127;47.908;10.850;2023-09-12T10:44:52;5.38;;;4.97;;
8171;SDS011;4127;47.908;10.850;2023-09-12T10:47:21;5.53;;;5.00;;
8171;SDS011;4127;47.908;10.850;2023-09-12T10:49:48;5.03;;;4.70;;
8171;SDS011;4127;47.908;10.850;2023-09-12T10:52:26;5.15;;;4.75;;
8171;SDS011;4127;47.908;10.850;2023-09-12T10:54:54;5.10;;;4.70;;
8171;SDS011;4127;47.908;10.850;2023-09-12T10:57:21;6.10;;;5.53;;
8171;SDS011;4127;47.908;10.850;2023-09-12T11:02:36;5.45;;;5.05;;
8171;SDS011;4127;47.908;10.850;2023-09-12T11:05:05;4.97;;;4.57;;
8171;SDS011;4127;47.908;10.850;2023-09-12T11:07:56;4.85;;;4.45;;
8171;SDS011;4127;47.908;10.850;2023-09-12T11:10:24;4.95;;;4.55;;
8171;SDS011;4127;47.908;10.850;2023-09-12T11:12:55;5.07;;;4.68;;
8171;SDS011;4127;47.908;10.850;2023-09-12T11:15:26;4.82;;;4.43;;
8171;SDS011;4127;47.908;10.850;2023-09-12T11:18:04;4.80;;;4.45;;
8171;SDS011;4127;47.908;10.850;2023-09-12T11:20:48;5.03;;;4.63;;
8171;SDS011;4127;47.908;10.850;2023-09-12T11:23:15;4.68;;;4.28;;
8171;SDS011;4127;47.908;10.850;2023-09-12T11:25:42;5.75;;;4.40;;
8171;SDS011;4127;47.908;10.850;2023-09-12T11:28:09;5.07;;;4.68;;
8171;SDS011;4127;47.908;10.850;2023-09-12T11:30:37;5.55;;;5.00;;
8171;SDS011;4127;47.908;10.850;2023-09-12T11:33:23;6.30;;;4.90;;
8171;SDS011;4127;47.908;10.850;2023-09-12T11:35:53;5.13;;;4.72;;
8171;SDS011;4127;47.908;10.850;2023-09-12T11:38:28;4.85;;;4.45;;
8171;SDS011;4127;47.908;10.850;2023-09-12T11:40:56;4.70;;;4.40;;
8171;SDS011;4127;47.908;10.850;2023-09-12T11:43:25;5.40;;;4.85;;
8171;SDS011;4127;47.908;10.850;2023-09-12T11:45:54;4.80;;;4.40;;
8171;SDS011;4127;47.908;10.850;2023-09-12T11:48:22;5.47;;;4.97;;
8171;SDS011;4127;47.908;10.850;2023-09-12T11:50:53;5.50;;;4.97;;
8171;SDS011;4127;47.908;10.850;2023-09-12T11:53:25;5.57;;;5.07;;
8171;SDS011;4127;47.908;10.850;2023-09-12T11:55:57;5.38;;;4.88;;
8171;SDS011;4127;47.908;10.850;2023-09-12T11:58:26;5.20;;;4.80;;
8171;SDS011;4127;47.908;10.850;2023-09-12T12:00:57;5.00;;;4.60;;
8171;SDS011;4127;47.908;10.850;2023-09-12T12:03:28;5.00;;;4.60;;
8171;SDS011;4127;47.908;10.850;2023-09-12T12:05:55;4.85;;;4.45;;
8171;SDS011;4127;47.908;10.850;2023-09-12T12:08:23;5.20;;;4.80;;
8171;SDS011;4127;47.908;10.850;2023-09-12T12:10:53;6.65;;;4.95;;
8171;SDS011;4127;47.908;10.850;2023-09-12T12:13:21;5.85;;;5.18;;
8171;SDS011;4127;47.908;10.850;2023-09-12T12:15:50;8.00;;;5.05;;
8171;SDS011;4127;47.908;10.850;2023-09-12T12:18:17;5.38;;;4.95;;
8171;SDS011;4127;47.908;10.850;2023-09-12T12:20:44;5.30;;;4.90;;
8171;SDS011;4127;47.908;10.850;2023-09-12T12:23:11;5.57;;;4.80;;
8171;SDS011;4127;47.908;10.850;2023-09-12T12:25:38;5.57;;;5.07;;
8171;SDS011;4127;47.908;10.850;2023-09-12T12:28:06;5.00;;;4.50;;
8171;SDS011;4127;47.908;10.850;2023-09-12T12:30:34;4.95;;;4.45;;
8171;SDS011;4127;47.908;10.850;2023-09-12T12:33:06;5.00;;;4.60;;
8171;SDS011;4127;47.908;10.850;2023-09-12T12:36:04;4.25;;;3.85;;
8171;SDS011;4127;47.908;10.850;2023-09-12T12:38:35;4.95;;;4.53;;
8171;SDS011;4127;47.908;10.850;2023-09-12T12:41:10;4.93;;;4.50;;
8171;SDS011;4127;47.908;10.850;2023-09-12T12:43:39;4.82;;;4.43;;
8171;SDS011;4127;47.908;10.850;2023-09-12T12:46:11;4.70;;;4.30;;
8171;SDS011;4127;47.908;10.850;2023-09-12T12:48:42;5.20;;;4.22;;
8171;SDS011;4127;47.908;10.850;2023-09-12T12:51:18;4.22;;;3.92;;
8171;SDS011;4127;47.908;10.850;2023-09-12T12:53:49;4.20;;;3.90;;
8171;SDS011;4127;47.908;10.850;2023-09-12T12:56:20;5.30;;;4.55;;
8171;SDS011;4127;47.908;10.850;2023-09-12T12:58:49;4.60;;;4.20;;
8171;SDS011;4127;47.908;10.850;2023-09-12T13:01:18;4.40;;;4.00;;
8171;SDS011;4127;47.908;10.850;2023-09-12T13:03:45;5.10;;;3.90;;
8171;SDS011;4127;47.908;10.850;2023-09-12T13:06:13;4.68;;;4.28;;
8171;SDS011;4127;47.908;10.850;2023-09-12T13:08:41;4.50;;;4.10;;
8171;SDS011;4127;47.908;10.850;2023-09-12T13:11:11;4.50;;;4.10;;
8171;SDS011;4127;47.908;10.850;2023-09-12T13:13:43;5.78;;;4.90;;
8171;SDS011;4127;47.908;10.850;2023-09-12T13:16:12;5.70;;;4.80;;
8171;SDS011;4127;47.908;10.850;2023-09-12T13:18:40;4.70;;;4.07;;
8171;SDS011;4127;47.908;10.850;2023-09-12T13:21:08;4.60;;;4.20;;
8171;SDS011;4127;47.908;10.850;2023-09-12T13:23:36;4.40;;;4.00;;
8171;SDS011;4127;47.908;10.850;2023-09-12T13:26:04;5.32;;;4.38;;
8171;SDS011;4127;47.908;10.850;2023-09-12T13:28:32;5.10;;;4.60;;
8171;SDS011;4127;47.908;10.850;2023-09-12T13:30:59;4.80;;;4.40;;
8171;SDS011;4127;47.908;10.850;2023-09-12T13:33:26;5.43;;;4.93;;
8171;SDS011;4127;47.908;10.850;2023-09-12T13:35:53;5.13;;;4.65;;
8171;SDS011;4127;47.908;10.850;2023-09-12T13:38:20;5.25;;;4.75;;
8171;SDS011;4127;47.908;10.850;2023-09-12T13:40:47;4.93;;;4.53;;
8171;SDS011;4127;47.908;10.850;2023-09-12T13:43:15;5.60;;;4.80;;
8171;SDS011;4127;47.908;10.850;2023-09-12T13:45:42;5.07;;;4.50;;
8171;SDS011;4127;47.908;10.850;2023-09-12T13:48:09;4.22;;;3.92;;
8171;SDS011;4127;47.908;10.850;2023-09-12T13:50:36;5.82;;;4.57;;
8171;SDS011;4127;47.908;10.850;2023-09-12T13:53:03;4.68;;;4.28;;
8171;SDS011;4127;47.908;10.850;2023-09-12T13:55:32;4.85;;;4.32;;
8171;SDS011;4127;47.908;10.850;2023-09-12T13:58:05;4.93;;;4.40;;
8171;SDS011;4127;47.908;10.850;2023-09-12T14:00:33;5.57;;;5.07;;
8171;SDS011;4127;47.908;10.850;2023-09-12T14:03:03;5.20;;;4.40;;
8171;SDS011;4127;47.908;10.850;2023-09-12T14:05:31;5.40;;;4.47;;
8171;SDS011;4127;47.908;10.850;2023-09-12T14:07:59;4.88;;;4.47;;
8171;SDS011;4127;47.908;10.850;2023-09-12T14:10:26;4.78;;;4.38;;
8171;SDS011;4127;47.908;10.850;2023-09-12T14:13:02;4.72;;;4.32;;
8171;SDS011;4127;47.908;10.850;2023-09-12T14:15:46;5.28;;;4.45;;
8171;SDS011;4127;47.908;10.850;2023-09-12T14:18:14;4.70;;;3.88;;
8171;SDS011;4127;47.908;10.850;2023-09-12T14:20:42;4.57;;;4.18;;
8171;SDS011;4127;47.908;10.850;2023-09-12T14:23:10;5.28;;;4.78;;
8171;SDS011;4127;47.908;10.850;2023-09-12T14:25:37;4.93;;;4.45;;
8171;SDS011;4127;47.908;10.850;2023-09-12T14:28:05;5.20;;;4.40;;
8171;SDS011;4127;47.908;10.850;2023-09-12T14:30:34;4.93;;;4.30;;
8171;SDS011;4127;47.908;10.850;2023-09-12T14:33:02;4.75;;;4.22;;
8171;SDS011;4127;47.908;10.850;2023-09-12T14:35:29;4.55;;;4.10;;
8171;SDS011;4127;47.908;10.850;2023-09-12T14:37:57;6.70;;;4.50;;
8171;SDS011;4127;47.908;10.850;2023-09-12T14:40:25;4.38;;;3.97;;
8171;SDS011;4127;47.908;10.850;2023-09-12T14:42:53;5.18;;;4.78;;
8171;SDS011;4127;47.908;10.850;2023-09-12T14:45:20;4.75;;;4.10;;
8171;SDS011;4127;47.908;10.850;2023-09-12T14:47:48;4.45;;;4.13;;
8171;SDS011;4127;47.908;10.850;2023-09-12T14:50:15;5.50;;;4.13;;
8171;SDS011;4127;47.908;10.850;2023-09-12T14:52:42;4.70;;;4.03;;
8171;SDS011;4127;47.908;10.850;2023-09-12T14:55:10;4.47;;;4.07;;
8171;SDS011;4127;47.908;10.850;2023-09-12T14:57:37;4.78;;;4.38;;
8171;SDS011;4127;47.908;10.850;2023-09-12T15:00:04;3.95;;;3.65;;
8171;SDS011;4127;47.908;10.850;2023-09-12T15:02:31;4.60;;;4.30;;
8171;SDS011;4127;47.908;10.850;2023-09-12T15:05:02;6.00;;;4.43;;
8171;SDS011;4127;47.908;10.850;2023-09-12T15:07:30;4.28;;;3.88;;
8171;SDS011;4127;47.908;10.850;2023-09-12T15:09:57;6.97;;;4.50;;
8171;SDS011;4127;47.908;10.850;2023-09-12T15:12:27;4.65;;;4.25;;
8171;SDS011;4127;47.908;10.850;2023-09-12T15:14:54;4.30;;;4.00;;
8171;SDS011;4127;47.908;10.850;2023-09-12T15:17:21;6.07;;;4.18;;
8171;SDS011;4127;47.908;10.850;2023-09-12T15:19:48;6.43;;;4.38;;
8171;SDS011;4127;47.908;10.850;2023-09-12T15:22:15;5.05;;;4.53;;
8171;SDS011;4127;47.908;10.850;2023-09-12T15:24:42;4.60;;;4.20;;
8171;SDS011;4127;47.908;10.850;2023-09-12T15:27:09;5.57;;;4.40;;
8171;SDS011;4127;47.908;10.850;2023-09-12T15:29:36;6.43;;;4.30;;
8171;SDS011;4127;47.908;10.850;2023-09-12T15:32:03;4.82;;;4.43;;
8171;SDS011;4127;47.908;10.850;2023-09-12T15:34:32;4.07;;;3.78;;
8171;SDS011;4127;47.908;10.850;2023-09-12T15:37:06;4.63;;;4.22;;
8171;SDS011;4127;47.908;10.850;2023-09-12T15:39:48;6.63;;;4.55;;
8171;SDS011;4127;47.908;10.850;2023-09-12T15:42:15;4.75;;;4.32;;
8171;SDS011;4127;47.908;10.850;2023-09-12T15:45:00;4.47;;;4.10;;
8171;SDS011;4127;47.908;10.850;2023-09-12T15:47:29;4.60;;;4.20;;
8171;SDS011;4127;47.908;10.850;2023-09-12T15:49:56;4.63;;;4.22;;
8171;SDS011;4127;47.908;10.850;2023-09-12T15:52:23;4.97;;;4.38;;
8171;SDS011;4127;47.908;10.850;2023-09-12T15:54:50;5.35;;;4.95;;
8171;SDS011;4127;47.908;10.850;2023-09-12T15:57:21;5.68;;;5.18;;
8171;SDS011;4127;47.908;10.850;2023-09-12T15:59:48;5.07;;;4.63;;
8171;SDS011;4127;47.908;10.850;2023-09-12T16:02:15;5.22;;;4.82;;
8171;SDS011;4127;47.908;10.850;2023-09-12T16:04:43;5.32;;;4.93;;
8171;SDS011;4127;47.908;10.850;2023-09-12T16:07:10;5.38;;;4.88;;
8171;SDS011;4127;47.908;10.850;2023-09-12T16:09:37;5.55;;;5.05;;
8171;SDS011;4127;47.908;10.850;2023-09-12T16:12:04;5.15;;;4.63;;
8171;SDS011;4127;47.908;10.850;2023-09-12T16:14:31;6.30;;;5.32;;
8171;SDS011;4127;47.908;10.850;2023-09-12T16:16:58;5.40;;;4.95;;
8171;SDS011;4127;47.908;10.850;2023-09-12T16:19:25;5.90;;;5.32;;
8171;SDS011;4127;47.908;10.850;2023-09-12T16:21:52;5.40;;;4.90;;
8171;SDS011;4127;47.908;10.850;2023-09-12T16:24:19;5.60;;;5.10;;
8171;SDS011;4127;47.908;10.850;2023-09-12T16:26:48;5.63;;;5.13;;
8171;SDS011;4127;47.908;10.850;2023-09-12T16:29:16;5.30;;;4.80;;
8171;SDS011;4127;47.908;10.850;2023-09-12T16:31:43;5.85;;;5.35;;
8171;SDS011;4127;47.908;10.850;2023-09-12T16:34:10;6.05;;;5.43;;
8171;SDS011;4127;47.908;10.850;2023-09-12T16:36:37;5.70;;;5.20;;
8171;SDS011;4127;47.908;10.850;2023-09-12T16:39:04;5.90;;;5.40;;
8171;SDS011;4127;47.908;10.850;2023-09-12T16:41:31;6.72;;;5.57;;
8171;SDS011;4127;47.908;10.850;2023-09-12T16:43:59;5.63;;;5.07;;
8171;SDS011;4127;47.908;10.850;2023-09-12T16:46:26;5.38;;;4.88;;
8171;SDS011;4127;47.908;10.850;2023-09-12T16:48:53;6.22;;;5.68;;
8171;SDS011;4127;47.908;10.850;2023-09-12T16:51:21;5.72;;;5.22;;
8171;SDS011;4127;47.908;10.850;2023-09-12T16:53:49;6.32;;;5.72;;
8171;SDS011;4127;47.908;10.850;2023-09-12T16:56:17;5.97;;;5.45;;
8171;SDS011;4127;47.908;10.850;2023-09-12T16:58:44;6.97;;;5.57;;
8171;SDS011;4127;47.908;10.850;2023-09-12T17:01:10;5.80;;;5.20;;
8171;SDS011;4127;47.908;10.850;2023-09-12T17:03:38;6.13;;;5.63;;
8171;SDS011;4127;47.908;10.850;2023-09-12T17:06:10;6.22;;;5.63;;
8171;SDS011;4127;47.908;10.850;2023-09-12T17:08:37;5.43;;;4.93;;
8171;SDS011;4127;47.908;10.850;2023-09-12T17:11:04;6.22;;;5.53;;
8171;SDS011;4127;47.908;10.850;2023-09-12T17:13:31;5.90;;;5.30;;
8171;SDS011;4127;47.908;10.850;2023-09-12T17:15:58;5.35;;;4.85;;
8171;SDS011;4127;47.908;10.850;2023-09-12T17:18:25;5.60;;;5.10;;
8171;SDS011;4127;47.908;10.850;2023-09-12T17:20:52;5.80;;;5.30;;
8171;SDS011;4127;47.908;10.850;2023-09-12T17:23:19;6.30;;;5.43;;
8171;SDS011;4127;47.908;10.850;2023-09-12T17:25:46;6.10;;;5.50;;
8171;SDS011;4127;47.908;10.850;2023-09-12T17:28:13;6.47;;;5.88;;
8171;SDS011;4127;47.908;10.850;2023-09-12T17:30:40;6.25;;;5.65;;
8171;SDS011;4127;47.908;10.850;2023-09-12T17:33:07;6.10;;;5.60;;
8171;SDS011;4127;47.908;10.850;2023-09-12T17:35:36;6.65;;;6.15;;
8171;SDS011;4127;47.908;10.850;2023-09-12T17:38:03;6.00;;;5.50;;
8171;SDS011;4127;47.908;10.850;2023-09-12T17:40:30;6.07;;;5.55;;
8171;SDS011;4127;47.908;10.850;2023-09-12T17:42:57;5.43;;;5.03;;
8171;SDS011;4127;47.908;10.850;2023-09-12T17:45:25;6.68;;;5.50;;
8171;SDS011;4127;47.908;10.850;2023-09-12T17:47:52;5.78;;;5.28;;
8171;SDS011;4127;47.908;10.850;2023-09-12T17:50:19;5.43;;;5.03;;
8171;SDS011;4127;47.908;10.850;2023-09-12T17:52:47;5.70;;;5.20;;
8171;SDS011;4127;47.908;10.850;2023-09-12T17:55:14;5.38;;;4.95;;
8171;SDS011;4127;47.908;10.850;2023-09-12T17:57:41;4.88;;;4.47;;
8171;SDS011;4127;47.908;10.850;2023-09-12T18:00:11;4.68;;;4.30;;
8171;SDS011;4127;47.908;10.850;2023-09-12T18:02:38;5.30;;;4.30;;
8171;SDS011;4127;47.908;10.850;2023-09-12T18:05:06;4.57;;;4.18;;
8171;SDS011;4127;47.908;10.850;2023-09-12T18:07:35;5.00;;;4.60;;
8171;SDS011;4127;47.908;10.850;2023-09-12T18:10:02;5.72;;;5.10;;
8171;SDS011;4127;47.908;10.850;2023-09-12T18:12:29;5.30;;;4.90;;
8171;SDS011;4127;47.908;10.850;2023-09-12T18:14:56;4.93;;;4.53;;
8171;SDS011;4127;47.908;10.850;2023-09-12T18:17:23;4.50;;;4.18;;
8171;SDS011;4127;47.908;10.850;2023-09-12T18:19:50;5.05;;;4.63;;
8171;SDS011;4127;47.908;10.850;2023-09-12T18:22:19;4.28;;;3.88;;
8171;SDS011;4127;47.908;10.850;2023-09-12T18:24:45;4.28;;;3.97;;
8171;SDS011;4127;47.908;10.850;2023-09-12T18:27:12;4.55;;;4.25;;
8171;SDS011;4127;47.908;10.850;2023-09-12T18:29:39;4.97;;;4.57;;
8171;SDS011;4127;47.908;10.850;2023-09-12T18:32:06;4.80;;;4.40;;
8171;SDS011;4127;47.908;10.850;2023-09-12T18:34:33;4.60;;;4.22;;
8171;SDS011;4127;47.908;10.850;2023-09-12T18:37:00;5.15;;;4.65;;
8171;SDS011;4127;47.908;10.850;2023-09-12T18:39:27;5.05;;;4.68;;
8171;SDS011;4127;47.908;10.850;2023-09-12T18:41:54;4.78;;;4.38;;
8171;SDS011;4127;47.908;10.850;2023-09-12T18:44:20;4.75;;;4.38;;
8171;SDS011;4127;47.908;10.850;2023-09-12T18:46:49;4.68;;;4.28;;
8171;SDS011;4127;47.908;10.850;2023-09-12T18:49:17;4.10;;;3.80;;
8171;SDS011;4127;47.908;10.850;2023-09-12T18:51:44;4.40;;;4.00;;
8171;SDS011;4127;47.908;10.850;2023-09-12T18:54:20;4.85;;;4.43;;
8171;SDS011;4127;47.908;10.850;2023-09-12T18:56:48;4.72;;;4.32;;
8171;SDS011;4127;47.908;10.850;2023-09-12T18:59:15;4.50;;;4.07;;
8171;SDS011;4127;47.908;10.850;2023-09-12T19:01:43;4.45;;;4.05;;
8171;SDS011;4127;47.908;10.850;2023-09-12T19:04:26;4.50;;;4.20;;
8171;SDS011;4127;47.908;10.850;2023-09-12T19:06:55;5.70;;;4.60;;
8171;SDS011;4127;47.908;10.850;2023-09-12T19:09:23;4.83;;;4.43;;
8171;SDS011;4127;47.908;10.850;2023-09-12T19:11:50;4.90;;;4.50;;
8171;SDS011;4127;47.908;10.850;2023-09-12T19:14:18;5.70;;;5.05;;
8171;SDS011;4127;47.908;10.850;2023-09-12T19:16:44;4.93;;;4.28;;
8171;SDS011;4127;47.908;10.850;2023-09-12T19:19:12;4.80;;;4.30;;
8171;SDS011;4127;47.908;10.850;2023-09-12T19:21:39;5.13;;;4.57;;
8171;SDS011;4127;47.908;10.850;2023-09-12T19:24:05;4.33;;;4.03;;
8171;SDS011;4127;47.908;10.850;2023-09-12T19:26:34;4.53;;;4.13;;
8171;SDS011;4127;47.908;10.850;2023-09-12T19:29:01;4.87;;;4.47;;
8171;SDS011;4127;47.908;10.850;2023-09-12T19:31:29;4.27;;;3.87;;
8171;SDS011;4127;47.908;10.850;2023-09-12T19:33:57;4.27;;;3.97;;
8171;SDS011;4127;47.908;10.850;2023-09-12T19:36:25;4.07;;;3.67;;
8171;SDS011;4127;47.908;10.850;2023-09-12T19:38:52;4.27;;;3.87;;
8171;SDS011;4127;47.908;10.850;2023-09-12T19:41:19;4.77;;;4.30;;
8171;SDS011;4127;47.908;10.850;2023-09-12T19:43:46;3.93;;;3.63;;
8171;SDS011;4127;47.908;10.850;2023-09-12T19:46:12;4.57;;;4.07;;
8171;SDS011;4127;47.908;10.850;2023-09-12T19:48:39;4.10;;;3.77;;
8171;SDS011;4127;47.908;10.850;2023-09-12T19:51:06;4.27;;;3.97;;
8171;SDS011;4127;47.908;10.850;2023-09-12T19:53:33;4.17;;;3.87;;
8171;SDS011;4127;47.908;10.850;2023-09-12T19:56:00;4.30;;;3.90;;
8171;SDS011;4127;47.908;10.850;2023-09-12T19:58:29;4.17;;;3.77;;
8171;SDS011;4127;47.908;10.850;2023-09-12T20:00:57;4.50;;;4.10;;
8171;SDS011;4127;47.908;10.850;2023-09-12T20:03:25;4.57;;;4.27;;
8171;SDS011;4127;47.908;10.850;2023-09-12T20:05:53;3.83;;;3.53;;
8171;SDS011;4127;47.908;10.850;2023-09-12T20:08:20;3.90;;;3.60;;
8171;SDS011;4127;47.908;10.850;2023-09-12T20:10:47;3.87;;;3.47;;
8171;SDS011;4127;47.908;10.850;2023-09-12T20:13:14;4.23;;;3.83;;
8171;SDS011;4127;47.908;10.850;2023-09-12T20:15:41;4.90;;;3.77;;
8171;SDS011;4127;47.908;10.850;2023-09-12T20:18:09;3.97;;;3.67;;
8171;SDS011;4127;47.908;10.850;2023-09-12T20:20:39;4.10;;;3.80;;
8171;SDS011;4127;47.908;10.850;2023-09-12T20:23:30;4.17;;;3.77;;
8171;SDS011;4127;47.908;10.850;2023-09-12T20:26:23;4.20;;;3.57;;
8171;SDS011;4127;47.908;10.850;2023-09-12T20:28:58;4.87;;;3.80;;
8171;SDS011;4127;47.908;10.850;2023-09-12T23:16:52;2.43;;;2.23;;
8171;SDS011;4127;47.908;10.850;2023-09-12T23:20:02;2.87;;;2.67;;
8171;SDS011;4127;47.908;10.850;2023-09-12T23:22:32;3.97;;;2.50;;
8171;SDS011;4127;47.908;10.850;2023-09-12T23:24:58;3.20;;;2.87;;
8171;SDS011;4127;47.908;10.850;2023-09-12T23:27:25;3.13;;;2.83;;
8171;SDS011;4127;47.908;10.850;2023-09-12T23:29:52;2.70;;;2.50;;
8171;SDS011;4127;47.908;10.850;2023-09-12T23:32:21;3.40;;;3.10;;
8171;SDS011;4127;47.908;10.850;2023-09-12T23:34:47;3.93;;;3.33;;
8171;SDS011;4127;47.908;10.850;2023-09-12T23:37:14;3.13;;;2.90;;
8171;SDS011;4127;47.908;10.850;2023-09-12T23:39:41;3.30;;;3.00;;
8171;SDS011;4127;47.908;10.850;2023-09-12T23:42:08;2.90;;;2.60;;
8171;SDS011;4127;47.908;10.850;2023-09-12T23:44:35;2.80;;;2.60;;
8171;SDS011;4127;47.908;10.850;2023-09-12T23:47:02;3.53;;;2.90;;
8171;SDS011;4127;47.908;10.850;2023-09-12T23:49:29;3.17;;;2.90;;
8171;SDS011;4127;47.908;10.850;2023-09-12T23:51:56;2.87;;;2.67;;
8171;SDS011;4127;47.908;10.850;2023-09-12T23:54:23;2.50;;;2.27;;
8171;SDS011;4127;47.908;10.850;2023-09-12T23:56:49;3.37;;;2.50;;
8171;SDS011;4127;47.908;10.850;2023-09-12T23:59:16;4.00;;;2.80;;
